Time;durP1;ratioP1;P1;durP2;ratioP2;P2;SDS_P1;SDS_P2;PMS_P1;PMS_P2;Temp;Humidity;BMP_temperature;BMP_pressure;BME280_temperature;BME280_humidity;BME280_pressure;Samples;Min_cycle;Max_cycle;Signal;HPM_P1;HPM_P2
2023/09/15 00:01:30;;;;;;;4.63;1.98;;;;;;;;;;4985293;28;20319;-75
2023/09/15 00:03:55;;;;;;;4.10;1.90;;;;;;;;;;4984851;28;20034;-75
2023/09/15 00:06:20;;;;;;;3.28;1.95;;;;;;;;;;5069440;28;20110;-75
2023/09/15 00:08:46;;;;;;;1.52;1.33;;;;;;;;;;5069316;28;20310;-75
2023/09/15 00:11:17;;;;;;;2.92;1.50;;;;;;;;;;4984749;28;20487;-75
2023/09/15 00:13:44;;;;;;;1.98;1.55;;;;;;;;;;4985070;28;20038;-76
2023/09/15 00:16:44;;;;;;;3.53;1.27;;;;;;;;;;5051374;28;20389;-77
2023/09/15 00:19:16;;;;;;;3.22;1.77;;;;;;;;;;4989694;28;20044;-76
2023/09/15 00:21:42;;;;;;;1.95;1.50;;;;;;;;;;4988525;28;20038;-75
2023/09/15 00:24:08;;;;;;;2.13;1.67;;;;;;;;;;4990102;28;20088;-75
2023/09/15 00:26:34;;;;;;;2.67;1.75;;;;;;;;;;4991950;28;20475;-75
2023/09/15 00:29:00;;;;;;;1.33;1.20;;;;;;;;;;4990226;28;20367;-78
2023/09/15 00:31:26;;;;;;;1.58;1.48;;;;;;;;;;4986508;28;20034;-75
2023/09/15 00:33:51;;;;;;;2.17;1.67;;;;;;;;;;4984729;28;20083;-75
2023/09/15 00:36:16;;;;;;;1.88;1.50;;;;;;;;;;4990007;28;20041;-76
2023/09/15 00:38:42;;;;;;;2.20;1.63;;;;;;;;;;4996225;28;20052;-75
2023/09/15 00:41:07;;;;;;;2.75;1.80;;;;;;;;;;5056408;28;20125;-75
2023/09/15 00:43:32;;;;;;;2.95;1.83;;;;;;;;;;4987763;28;20495;-76
2023/09/15 00:46:03;;;;;;;4.38;1.30;;;;;;;;;;4989095;28;20027;-76
2023/09/15 00:48:28;;;;;;;2.00;1.60;;;;;;;;;;4989380;28;20026;-76
2023/09/15 00:50:54;;;;;;;4.93;1.63;;;;;;;;;;4988138;28;20124;-76
2023/09/15 00:53:21;;;;;;;4.53;1.83;;;;;;;;;;4986022;28;20023;-76
2023/09/15 00:55:48;;;;;;;2.47;1.85;;;;;;;;;;4988933;28;20045;-75
2023/09/15 00:58:16;;;;;;;2.30;1.67;;;;;;;;;;4991638;28;20380;-76
2023/09/15 01:00:43;;;;;;;2.42;1.73;;;;;;;;;;5056466;28;20065;-76
2023/09/15 01:03:11;;;;;;;2.60;1.85;;;;;;;;;;4993165;28;20033;-76
2023/09/15 01:05:38;;;;;;;3.72;1.80;;;;;;;;;;5054383;28;20190;-76
2023/09/15 01:08:04;;;;;;;3.13;1.80;;;;;;;;;;4988040;28;20391;-76
2023/09/15 01:10:29;;;;;;;2.85;1.70;;;;;;;;;;4994298;28;20025;-76
2023/09/15 01:12:56;;;;;;;2.67;1.92;;;;;;;;;;4986836;28;20084;-76
2023/09/15 01:15:28;;;;;;;2.35;1.88;;;;;;;;;;4988316;28;20062;-75
2023/09/15 01:18:32;;;;;;;1.63;1.52;;;;;;;;;;5030664;28;20113;-75
2023/09/15 01:22:01;;;;;;;2.55;1.75;;;;;;;;;;4981373;28;20030;-75
2023/09/15 01:24:51;;;;;;;3.38;2.13;;;;;;;;;;5010951;28;20060;-76
2023/09/15 01:27:44;;;;;;;3.20;1.52;;;;;;;;;;4990252;28;20042;-76
2023/09/15 01:30:11;;;;;;;2.15;1.73;;;;;;;;;;5072149;28;20033;-76
2023/09/15 01:32:36;;;;;;;3.30;1.75;;;;;;;;;;5066137;28;20034;-76
2023/09/15 01:35:06;;;;;;;2.03;1.88;;;;;;;;;;4989863;28;20037;-76
2023/09/15 01:37:31;;;;;;;3.40;1.75;;;;;;;;;;4988926;28;20490;-76
2023/09/15 01:39:59;;;;;;;2.72;2.15;;;;;;;;;;4989168;28;20045;-76
2023/09/15 01:42:24;;;;;;;4.75;1.90;;;;;;;;;;4987415;28;20483;-76
2023/09/15 01:44:49;;;;;;;2.08;1.83;;;;;;;;;;4987400;28;20045;-76
2023/09/15 01:47:20;;;;;;;2.42;1.55;;;;;;;;;;5010608;28;20452;-76
2023/09/15 01:49:48;;;;;;;2.40;1.88;;;;;;;;;;4988208;28;20021;-76
2023/09/15 01:52:14;;;;;;;1.95;1.63;;;;;;;;;;4990882;28;20030;-76
2023/09/15 01:54:39;;;;;;;5.70;2.38;;;;;;;;;;5008429;28;20030;-76
2023/09/15 01:57:05;;;;;;;3.05;2.03;;;;;;;;;;4991451;28;20030;-76
2023/09/15 01:59:30;;;;;;;2.65;1.55;;;;;;;;;;4987463;28;20026;-76
2023/09/15 02:01:56;;;;;;;1.80;1.70;;;;;;;;;;4988429;28;20432;-76
2023/09/15 02:04:21;;;;;;;2.25;1.85;;;;;;;;;;4991789;28;20438;-76
2023/09/15 02:06:47;;;;;;;2.20;1.85;;;;;;;;;;4988532;28;20034;-76
2023/09/15 02:09:15;;;;;;;5.35;2.00;;;;;;;;;;5009930;28;20025;-76
2023/09/15 02:11:40;;;;;;;2.42;2.00;;;;;;;;;;4988666;28;20029;-76
2023/09/15 02:14:06;;;;;;;4.22;2.22;;;;;;;;;;5009560;28;20022;-76
2023/09/15 02:16:31;;;;;;;3.40;2.00;;;;;;;;;;4984260;28;20487;-76
2023/09/15 02:18:57;;;;;;;6.55;2.17;;;;;;;;;;4988422;28;20495;-75
2023/09/15 02:21:22;;;;;;;3.67;1.92;;;;;;;;;;4993560;28;20038;-75
2023/09/15 02:23:47;;;;;;;1.60;1.50;;;;;;;;;;4990417;28;20121;-76
2023/09/15 02:26:13;;;;;;;3.10;1.80;;;;;;;;;;4989671;28;20105;-76
2023/09/15 02:28:38;;;;;;;2.70;1.92;;;;;;;;;;4990803;28;20030;-76
2023/09/15 02:31:04;;;;;;;3.00;2.15;;;;;;;;;;4987389;28;20027;-75
2023/09/15 02:33:30;;;;;;;2.60;1.95;;;;;;;;;;4985414;28;20148;-76
2023/09/15 02:35:55;;;;;;;3.25;1.88;;;;;;;;;;4987070;28;20489;-76
2023/09/15 02:38:20;;;;;;;2.25;1.80;;;;;;;;;;5004983;28;20028;-76
2023/09/15 02:40:46;;;;;;;2.58;2.03;;;;;;;;;;4994633;28;20022;-76
2023/09/15 02:43:11;;;;;;;2.08;1.83;;;;;;;;;;4985166;28;20466;-76
2023/09/15 02:45:37;;;;;;;5.00;2.00;;;;;;;;;;4987686;28;20050;-80
2023/09/15 02:48:03;;;;;;;2.20;1.88;;;;;;;;;;4987824;28;20079;-75
2023/09/15 02:50:29;;;;;;;2.72;2.30;;;;;;;;;;4987322;28;20045;-76
2023/09/15 02:52:54;;;;;;;2.72;2.13;;;;;;;;;;4989164;28;20476;-76
2023/09/15 02:55:19;;;;;;;4.65;2.53;;;;;;;;;;4990466;28;20029;-76
2023/09/15 02:57:45;;;;;;;2.72;2.10;;;;;;;;;;4991993;28;20030;-76
2023/09/15 03:00:13;;;;;;;4.03;2.33;;;;;;;;;;4991242;28;20034;-76
2023/09/15 03:02:40;;;;;;;2.83;2.03;;;;;;;;;;4992900;28;20018;-76
2023/09/15 03:05:07;;;;;;;5.13;2.58;;;;;;;;;;4992521;28;20030;-76
2023/09/15 03:07:32;;;;;;;4.38;2.65;;;;;;;;;;4992888;28;20030;-77
2023/09/15 03:09:57;;;;;;;7.07;3.03;;;;;;;;;;4991486;28;20026;-77
2023/09/15 03:12:23;;;;;;;3.55;2.25;;;;;;;;;;4989343;28;20029;-75
2023/09/15 03:14:50;;;;;;;3.17;2.45;;;;;;;;;;4990125;28;20065;-75
2023/09/15 03:17:17;;;;;;;2.33;2.10;;;;;;;;;;4990640;28;20042;-76
2023/09/15 03:19:42;;;;;;;2.92;2.03;;;;;;;;;;4991283;28;20038;-76
2023/09/15 03:22:07;;;;;;;2.45;1.90;;;;;;;;;;5003965;28;20076;-76
2023/09/15 03:24:33;;;;;;;2.97;2.13;;;;;;;;;;4992960;28;20069;-76
2023/09/15 03:26:59;;;;;;;3.45;2.25;;;;;;;;;;4994454;28;20022;-76
2023/09/15 03:29:24;;;;;;;3.00;2.15;;;;;;;;;;4990944;28;20026;-76
2023/09/15 03:31:50;;;;;;;4.57;2.65;;;;;;;;;;4987627;28;20063;-76
2023/09/15 03:34:15;;;;;;;4.22;2.45;;;;;;;;;;4993731;28;20027;-76
2023/09/15 03:36:40;;;;;;;3.30;2.28;;;;;;;;;;4990346;28;20188;-76
2023/09/15 03:39:06;;;;;;;3.35;2.28;;;;;;;;;;4989310;28;20026;-76
2023/09/15 03:41:31;;;;;;;3.72;2.33;;;;;;;;;;4996538;28;20083;-76
2023/09/15 03:43:56;;;;;;;2.55;2.13;;;;;;;;;;4989408;28;20412;-76
2023/09/15 03:46:22;;;;;;;3.22;2.45;;;;;;;;;;4990439;28;20049;-76
2023/09/15 03:48:47;;;;;;;3.60;2.78;;;;;;;;;;4989672;28;20072;-76
2023/09/15 03:51:13;;;;;;;2.55;1.77;;;;;;;;;;4987586;28;20045;-76
2023/09/15 03:53:38;;;;;;;2.42;2.22;;;;;;;;;;4988963;28;20018;-76
2023/09/15 03:56:04;;;;;;;3.45;2.30;;;;;;;;;;5018170;28;20480;-76
2023/09/15 03:58:29;;;;;;;3.53;2.15;;;;;;;;;;5062271;28;20026;-76
2023/09/15 04:00:54;;;;;;;5.22;2.00;;;;;;;;;;5071871;28;20464;-76
2023/09/15 04:03:21;;;;;;;2.38;1.98;;;;;;;;;;4988428;28;20087;-76
2023/09/15 04:05:46;;;;;;;3.95;2.75;;;;;;;;;;4992538;28;20026;-75
2023/09/15 04:08:11;;;;;;;5.68;2.70;;;;;;;;;;4989621;28;20033;-75
2023/09/15 04:10:38;;;;;;;5.38;2.50;;;;;;;;;;4989053;28;20109;-75
2023/09/15 04:13:03;;;;;;;2.55;2.03;;;;;;;;;;4988258;28;20026;-75
2023/09/15 04:15:29;;;;;;;3.42;2.65;;;;;;;;;;4989758;28;20048;-75
2023/09/15 04:17:55;;;;;;;3.35;2.40;;;;;;;;;;4992140;28;20071;-77
2023/09/15 04:20:21;;;;;;;4.85;2.30;;;;;;;;;;4989090;28;20766;-76
2023/09/15 04:22:46;;;;;;;3.92;2.22;;;;;;;;;;4989139;28;20014;-74
2023/09/15 04:25:11;;;;;;;3.17;2.40;;;;;;;;;;4989461;28;20129;-76
2023/09/15 04:27:37;;;;;;;3.63;2.50;;;;;;;;;;4994685;28;20533;-75
2023/09/15 04:30:03;;;;;;;2.92;2.25;;;;;;;;;;4989366;28;20038;-75
2023/09/15 04:32:28;;;;;;;2.85;2.17;;;;;;;;;;4987311;28;20406;-75
2023/09/15 04:34:54;;;;;;;2.78;2.15;;;;;;;;;;4989597;28;20517;-75
2023/09/15 04:37:20;;;;;;;3.72;2.92;;;;;;;;;;4988786;28;20022;-75
2023/09/15 04:39:47;;;;;;;3.45;2.38;;;;;;;;;;4989911;28;20052;-75
2023/09/15 04:42:12;;;;;;;4.63;2.63;;;;;;;;;;4987408;28;20022;-75
2023/09/15 04:44:38;;;;;;;2.38;2.17;;;;;;;;;;4987623;28;20503;-75
2023/09/15 04:47:04;;;;;;;7.18;2.35;;;;;;;;;;5069438;28;20468;-75
2023/09/15 04:49:29;;;;;;;2.65;2.22;;;;;;;;;;5050273;28;20018;-75
2023/09/15 04:51:55;;;;;;;3.10;2.42;;;;;;;;;;4984632;28;20543;-75
2023/09/15 04:54:20;;;;;;;3.38;2.22;;;;;;;;;;4986408;28;20525;-75
2023/09/15 04:56:46;;;;;;;3.50;2.38;;;;;;;;;;4991977;28;20030;-75
2023/09/15 04:59:20;;;;;;;3.42;2.35;;;;;;;;;;4989134;28;20061;-75
2023/09/15 05:01:46;;;;;;;5.38;2.70;;;;;;;;;;4987419;28;20026;-75
2023/09/15 05:04:15;;;;;;;4.22;2.75;;;;;;;;;;5038092;28;20026;-75
2023/09/15 05:06:41;;;;;;;4.70;2.70;;;;;;;;;;4987308;28;20095;-76
2023/09/15 05:09:09;;;;;;;3.35;2.35;;;;;;;;;;4987380;28;20026;-75
2023/09/15 05:11:35;;;;;;;5.63;2.63;;;;;;;;;;5068209;28;20026;-75
2023/09/15 05:14:00;;;;;;;7.25;2.38;;;;;;;;;;4988683;28;20030;-75
2023/09/15 05:16:25;;;;;;;3.85;2.55;;;;;;;;;;4988135;28;20026;-75
2023/09/15 05:18:51;;;;;;;6.88;2.83;;;;;;;;;;5029237;23;20092;-85
2023/09/15 05:21:16;;;;;;;4.55;2.65;;;;;;;;;;5024644;28;20028;-84
2023/09/15 05:23:41;;;;;;;4.32;2.70;;;;;;;;;;5068336;28;20062;-85
2023/09/15 05:26:08;;;;;;;6.10;2.78;;;;;;;;;;5069957;28;20462;-86
2023/09/15 05:28:33;;;;;;;2.95;2.40;;;;;;;;;;5070449;28;20740;-85
2023/09/15 05:30:59;;;;;;;4.78;2.90;;;;;;;;;;5052215;28;20056;-85
2023/09/15 05:33:25;;;;;;;4.72;3.50;;;;;;;;;;5063895;28;20473;-85
2023/09/15 05:35:55;;;;;;;4.78;3.38;;;;;;;;;;5060877;28;20071;-85
2023/09/15 05:38:24;;;;;;;5.68;2.97;;;;;;;;;;5047370;28;20025;-85
2023/09/15 05:40:51;;;;;;;3.80;2.88;;;;;;;;;;5071568;28;20052;-86
2023/09/15 05:43:17;;;;;;;5.88;2.97;;;;;;;;;;5063951;28;20057;-85
2023/09/15 05:45:43;;;;;;;6.03;2.97;;;;;;;;;;5058189;28;20427;-87
2023/09/15 05:48:12;;;;;;;9.43;2.97;;;;;;;;;;5048205;28;20055;-87
2023/09/15 05:50:38;;;;;;;5.20;2.42;;;;;;;;;;5053582;28;20017;-87
2023/09/15 05:53:03;;;;;;;5.28;2.95;;;;;;;;;;5061687;28;20090;-87
2023/09/15 05:55:29;;;;;;;3.55;2.55;;;;;;;;;;5055744;28;20476;-87
2023/09/15 05:57:55;;;;;;;5.85;3.28;;;;;;;;;;5058909;28;20036;-87
2023/09/15 06:00:21;;;;;;;6.28;3.30;;;;;;;;;;5064327;28;20036;-88
2023/09/15 06:02:47;;;;;;;6.70;2.58;;;;;;;;;;5062042;28;20021;-87
2023/09/15 06:05:12;;;;;;;4.65;2.83;;;;;;;;;;5071875;28;20142;-87
2023/09/15 06:07:38;;;;;;;4.05;2.90;;;;;;;;;;5071132;28;20019;-87
2023/09/15 06:10:04;;;;;;;5.88;3.60;;;;;;;;;;5049941;28;20483;-85
2023/09/15 06:12:30;;;;;;;5.35;3.53;;;;;;;;;;5049569;28;20075;-86
2023/09/15 06:15:01;;;;;;;4.90;3.13;;;;;;;;;;5068559;28;20279;-86
2023/09/15 06:17:27;;;;;;;5.32;3.50;;;;;;;;;;5049355;28;20022;-86
2023/09/15 06:19:53;;;;;;;6.15;3.22;;;;;;;;;;5062225;28;20505;-86
2023/09/15 06:22:19;;;;;;;6.70;3.15;;;;;;;;;;5070148;28;20606;-86
2023/09/15 06:25:30;;;;;;;7.45;3.05;;;;;;;;;;5063518;28;20035;-86
2023/09/15 06:27:56;;;;;;;4.95;3.17;;;;;;;;;;5057915;28;20019;-86
2023/09/15 06:30:22;;;;;;;4.70;3.30;;;;;;;;;;5049213;28;20028;-86
2023/09/15 06:32:47;;;;;;;5.40;3.30;;;;;;;;;;5071192;28;20024;-86
2023/09/15 06:35:13;;;;;;;3.90;2.50;;;;;;;;;;5055801;28;20055;-86
2023/09/15 06:37:42;;;;;;;4.28;2.88;;;;;;;;;;5051757;28;20027;-86
2023/09/15 06:40:08;;;;;;;5.68;2.60;;;;;;;;;;5070373;28;20036;-86
2023/09/15 06:42:34;;;;;;;3.55;2.53;;;;;;;;;;5068360;28;20025;-86
2023/09/15 06:44:59;;;;;;;6.70;3.25;;;;;;;;;;5048743;28;20058;-86
2023/09/15 06:47:30;;;;;;;4.05;2.60;;;;;;;;;;5074626;28;20048;-86
2023/09/15 06:49:55;;;;;;;5.20;3.10;;;;;;;;;;5071606;28;20036;-86
2023/09/15 06:52:30;;;;;;;3.55;2.45;;;;;;;;;;5053643;28;20017;-86
2023/09/15 06:54:56;;;;;;;4.63;2.80;;;;;;;;;;5069046;28;20094;-86
2023/09/15 06:57:37;;;;;;;3.17;2.47;;;;;;;;;;5042423;28;20048;-86
2023/09/15 07:00:03;;;;;;;3.33;2.45;;;;;;;;;;5055480;28;20029;-86
2023/09/15 07:02:29;;;;;;;3.58;2.67;;;;;;;;;;5071599;28;20499;-85
2023/09/15 07:04:54;;;;;;;3.92;2.70;;;;;;;;;;5036138;28;20045;-85
2023/09/15 07:07:19;;;;;;;5.13;2.97;;;;;;;;;;5072084;28;20033;-85
2023/09/15 07:09:45;;;;;;;5.00;3.08;;;;;;;;;;5073515;28;20107;-87
2023/09/15 07:12:10;;;;;;;3.38;3.03;;;;;;;;;;5069886;28;20684;-86
2023/09/15 07:14:36;;;;;;;4.68;2.85;;;;;;;;;;5052511;28;20369;-86
2023/09/15 07:17:03;;;;;;;5.68;3.47;;;;;;;;;;5053813;28;20111;-86
2023/09/15 07:19:30;;;;;;;4.55;2.95;;;;;;;;;;5072464;28;20031;-86
2023/09/15 07:21:56;;;;;;;4.20;2.78;;;;;;;;;;5051046;28;20028;-86
2023/09/15 07:24:21;;;;;;;4.45;2.72;;;;;;;;;;5068380;28;20028;-86
2023/09/15 07:26:47;;;;;;;4.03;2.45;;;;;;;;;;5069062;28;20023;-86
2023/09/15 07:29:13;;;;;;;4.20;3.00;;;;;;;;;;5070322;28;20029;-86
2023/09/15 07:31:41;;;;;;;3.47;2.75;;;;;;;;;;5073247;28;20076;-86
2023/09/15 07:34:07;;;;;;;3.88;2.83;;;;;;;;;;5074441;28;20024;-86
2023/09/15 07:36:32;;;;;;;4.93;3.08;;;;;;;;;;5069941;28;20480;-87
2023/09/15 07:38:58;;;;;;;4.15;2.80;;;;;;;;;;5068701;28;20388;-86
2023/09/15 07:41:24;;;;;;;3.78;2.90;;;;;;;;;;5060670;28;20020;-87
2023/09/15 07:43:50;;;;;;;4.45;3.33;;;;;;;;;;5077195;28;20037;-87
2023/09/15 07:46:15;;;;;;;6.25;2.95;;;;;;;;;;5038456;28;20027;-86
2023/09/15 07:48:43;;;;;;;4.65;3.05;;;;;;;;;;5075261;28;20081;-87
2023/09/15 07:51:11;;;;;;;4.20;3.20;;;;;;;;;;5064144;28;20138;-87
2023/09/15 07:53:46;;;;;;;6.57;3.70;;;;;;;;;;5073971;28;20092;-87
2023/09/15 07:56:11;;;;;;;6.18;3.30;;;;;;;;;;5030209;28;20103;-87
2023/09/15 07:58:37;;;;;;;4.75;3.13;;;;;;;;;;5052964;28;20638;-87
2023/09/15 08:01:02;;;;;;;4.22;3.17;;;;;;;;;;5061685;28;20456;-87
2023/09/15 08:03:28;;;;;;;4.70;3.33;;;;;;;;;;5042461;28;20024;-87
2023/09/15 08:05:54;;;;;;;5.00;3.38;;;;;;;;;;5039559;28;20109;-87
2023/09/15 08:08:19;;;;;;;6.55;3.63;;;;;;;;;;5054063;28;20067;-87
2023/09/15 08:10:46;;;;;;;7.82;3.50;;;;;;;;;;5048715;28;20383;-87
2023/09/15 08:13:11;;;;;;;4.40;3.35;;;;;;;;;;5059663;28;20515;-87
2023/09/15 08:15:36;;;;;;;5.15;3.33;;;;;;;;;;5056240;28;20017;-87
2023/09/15 08:18:03;;;;;;;4.90;3.55;;;;;;;;;;5068580;28;20028;-87
2023/09/15 08:20:29;;;;;;;4.38;2.92;;;;;;;;;;5031575;28;20491;-87
2023/09/15 08:22:55;;;;;;;7.40;3.20;;;;;;;;;;5065073;28;20032;-86
2023/09/15 08:25:20;;;;;;;5.28;3.50;;;;;;;;;;5074670;28;20369;-87
2023/09/15 08:27:46;;;;;;;4.40;3.30;;;;;;;;;;5071783;28;20077;-87
2023/09/15 08:30:12;;;;;;;5.82;4.00;;;;;;;;;;5064593;28;20510;-87
2023/09/15 08:32:37;;;;;;;4.38;3.20;;;;;;;;;;5061264;28;20025;-87
2023/09/15 08:35:04;;;;;;;4.35;2.92;;;;;;;;;;5054604;28;20032;-86
2023/09/15 08:37:35;;;;;;;6.15;2.90;;;;;;;;;;5075126;28;20027;-86
2023/09/15 08:40:00;;;;;;;4.13;3.15;;;;;;;;;;5074279;28;20025;-87
2023/09/15 08:42:27;;;;;;;5.07;2.92;;;;;;;;;;5059389;28;20028;-86
2023/09/15 08:44:54;;;;;;;4.20;2.80;;;;;;;;;;5084727;28;20020;-86
2023/09/15 08:47:20;;;;;;;3.80;2.70;;;;;;;;;;5089083;28;20028;-87
2023/09/15 08:49:51;;;;;;;3.72;2.25;;;;;;;;;;5072346;28;20017;-86
2023/09/15 08:52:17;;;;;;;5.22;2.60;;;;;;;;;;5058202;28;20032;-87
2023/09/15 08:54:45;;;;;;;5.45;2.90;;;;;;;;;;5074833;28;20032;-87
2023/09/15 08:57:11;;;;;;;3.60;2.90;;;;;;;;;;5073178;28;20027;-86
2023/09/15 08:59:37;;;;;;;4.22;2.97;;;;;;;;;;5073716;28;20020;-86
2023/09/15 09:02:03;;;;;;;4.25;2.50;;;;;;;;;;5060026;28;20017;-87
2023/09/15 09:04:29;;;;;;;3.65;2.88;;;;;;;;;;5064520;28;20481;-87
2023/09/15 09:06:55;;;;;;;3.03;2.30;;;;;;;;;;5065434;28;20032;-86
2023/09/15 09:09:22;;;;;;;2.72;2.33;;;;;;;;;;5023629;28;20055;-87
2023/09/15 09:11:48;;;;;;;3.90;2.78;;;;;;;;;;5068139;28;20017;-86
2023/09/15 09:14:14;;;;;;;3.30;2.60;;;;;;;;;;5070204;28;20380;-87
2023/09/15 09:16:49;;;;;;;5.25;2.72;;;;;;;;;;5073177;28;20069;-87
2023/09/15 09:19:14;;;;;;;3.78;2.47;;;;;;;;;;5066032;28;20097;-86
2023/09/15 09:21:40;;;;;;;3.95;2.40;;;;;;;;;;5062542;28;20032;-86
2023/09/15 09:24:06;;;;;;;4.00;3.08;;;;;;;;;;5067459;28;20024;-86
2023/09/15 09:26:32;;;;;;;3.58;2.45;;;;;;;;;;5072681;28;20025;-86
2023/09/15 09:28:57;;;;;;;3.28;2.50;;;;;;;;;;5030476;28;20016;-86
2023/09/15 09:31:27;;;;;;;5.32;2.50;;;;;;;;;;5067049;28;20060;-86
2023/09/15 09:33:54;;;;;;;4.97;2.85;;;;;;;;;;5068175;28;20016;-86
2023/09/15 09:36:19;;;;;;;4.05;2.90;;;;;;;;;;5060451;28;20025;-87
2023/09/15 09:38:47;;;;;;;5.78;2.70;;;;;;;;;;5065234;28;20031;-87
2023/09/15 09:41:13;;;;;;;3.95;2.22;;;;;;;;;;5067350;28;20037;-87
2023/09/15 09:43:40;;;;;;;5.50;2.83;;;;;;;;;;5056193;28;20020;-86
2023/09/15 09:46:06;;;;;;;3.38;2.30;;;;;;;;;;5063834;28;20441;-86
2023/09/15 09:48:35;;;;;;;3.75;2.72;;;;;;;;;;5061503;28;20033;-87
2023/09/15 09:51:02;;;;;;;3.50;2.85;;;;;;;;;;5076787;28;20036;-87
2023/09/15 09:53:29;;;;;;;2.72;2.20;;;;;;;;;;5078413;28;20024;-87
2023/09/15 09:55:55;;;;;;;4.38;2.50;;;;;;;;;;5078181;28;20042;-87
2023/09/15 09:58:24;;;;;;;5.22;2.42;;;;;;;;;;5057040;28;20020;-86
2023/09/15 10:00:50;;;;;;;4.13;2.63;;;;;;;;;;5074973;28;20013;-87
2023/09/15 10:03:21;;;;;;;4.07;2.45;;;;;;;;;;5050816;28;20013;-86
2023/09/15 10:05:49;;;;;;;3.33;2.00;;;;;;;;;;5046387;28;20017;-86
2023/09/15 10:08:15;;;;;;;3.83;2.30;;;;;;;;;;5062363;28;20456;-87
2023/09/15 10:10:45;;;;;;;4.70;2.22;;;;;;;;;;5064933;28;20479;-86
2023/09/15 10:13:13;;;;;;;3.85;2.83;;;;;;;;;;5064825;28;20032;-87
2023/09/15 10:15:40;;;;;;;3.60;2.50;;;;;;;;;;5071651;28;20024;-87
2023/09/15 10:18:07;;;;;;;4.30;2.70;;;;;;;;;;5054177;28;20115;-88
2023/09/15 10:20:34;;;;;;;3.55;2.90;;;;;;;;;;5067988;28;20387;-87
2023/09/15 10:23:00;;;;;;;5.13;3.40;;;;;;;;;;5053003;28;20391;-87
2023/09/15 10:25:27;;;;;;;3.00;2.35;;;;;;;;;;5069097;28;20039;-87
2023/09/15 10:27:52;;;;;;;3.92;2.75;;;;;;;;;;5048137;28;20032;-87
2023/09/15 10:30:18;;;;;;;3.78;2.70;;;;;;;;;;5071339;28;20035;-87
2023/09/15 10:32:44;;;;;;;7.65;2.97;;;;;;;;;;5072981;28;20020;-88
2023/09/15 10:35:11;;;;;;;4.20;2.67;;;;;;;;;;5072293;28;20049;-87
2023/09/15 10:37:42;;;;;;;5.05;2.65;;;;;;;;;;5072422;28;20063;-87
2023/09/15 10:40:10;;;;;;;4.32;2.88;;;;;;;;;;5055177;28;20120;-88
2023/09/15 10:42:55;;;;;;;3.65;2.78;;;;;;;;;;5068056;28;20016;-88
2023/09/15 10:45:21;;;;;;;2.83;2.30;;;;;;;;;;5092773;28;20009;-88
2023/09/15 10:48:00;;;;;;;4.38;2.58;;;;;;;;;;5091406;28;20040;-87
2023/09/15 10:50:39;;;;;;;3.08;2.50;;;;;;;;;;5081986;28;20020;-88
2023/09/15 10:53:09;;;;;;;4.38;2.75;;;;;;;;;;5078475;28;20032;-88
2023/09/15 10:55:35;;;;;;;3.72;2.30;;;;;;;;;;5077948;28;20033;-89
2023/09/15 10:58:02;;;;;;;4.22;2.70;;;;;;;;;;5076323;28;20027;-89
2023/09/15 11:00:29;;;;;;;3.63;2.67;;;;;;;;;;5072727;28;20028;-88
2023/09/15 11:02:55;;;;;;;7.13;3.22;;;;;;;;;;5054810;28;20091;-88
2023/09/15 11:05:21;;;;;;;3.13;2.60;;;;;;;;;;5078315;28;20024;-90
2023/09/15 11:07:47;;;;;;;3.80;2.63;;;;;;;;;;5065749;28;20040;-89
2023/09/15 11:10:13;;;;;;;5.38;2.72;;;;;;;;;;5066683;28;20064;-87
2023/09/15 11:12:44;;;;;;;4.18;2.35;;;;;;;;;;5075261;28;20093;-89
2023/09/15 11:15:10;;;;;;;;;;;;;;;;;;5068734;28;20034;-86
2023/09/15 11:17:36;;;;;;;2.65;2.30;;;;;;;;;;5055245;28;19955;-88
2023/09/15 11:20:05;;;;;;;3.35;2.40;;;;;;;;;;5062892;28;20040;-87
2023/09/15 11:22:32;;;;;;;3.63;2.60;;;;;;;;;;5058829;28;20025;-87
2023/09/15 11:24:58;;;;;;;3.58;2.63;;;;;;;;;;5074146;28;20039;-87
2023/09/15 11:27:23;;;;;;;2.90;2.30;;;;;;;;;;5076345;28;20099;-87
2023/09/15 11:29:49;;;;;;;3.05;2.63;;;;;;;;;;5058587;28;20073;-87
2023/09/15 11:32:14;;;;;;;6.30;2.35;;;;;;;;;;5059552;28;20514;-86
2023/09/15 11:34:40;;;;;;;3.45;2.47;;;;;;;;;;5076813;28;20180;-88
2023/09/15 11:37:05;;;;;;;3.95;2.60;;;;;;;;;;5068411;28;20029;-86
2023/09/15 11:39:30;;;;;;;3.95;2.40;;;;;;;;;;5063578;28;20036;-87
2023/09/15 11:41:56;;;;;;;2.65;2.30;;;;;;;;;;4985694;28;20017;-87
2023/09/15 11:44:26;;;;;;;3.05;2.40;;;;;;;;;;5073976;28;20076;-87
2023/09/15 11:46:55;;;;;;;3.30;2.55;;;;;;;;;;5059974;28;20031;-88
2023/09/15 11:49:22;;;;;;;7.50;2.50;;;;;;;;;;5070344;28;20025;-88
2023/09/15 11:51:48;;;;;;;3.33;2.10;;;;;;;;;;5071933;28;20029;-86
2023/09/15 11:54:14;;;;;;;3.25;2.25;;;;;;;;;;5078516;28;20025;-88
2023/09/15 11:56:40;;;;;;;2.42;2.10;;;;;;;;;;5060950;28;20028;-87
2023/09/15 11:59:06;;;;;;;3.00;2.38;;;;;;;;;;5067089;28;20043;-88
2023/09/15 12:01:32;;;;;;;3.47;2.50;;;;;;;;;;5063406;28;20013;-88
2023/09/15 12:03:58;;;;;;;4.65;2.35;;;;;;;;;;5073496;28;20051;-88
2023/09/15 12:06:23;;;;;;;3.85;2.40;;;;;;;;;;5073538;28;20025;-88
2023/09/15 12:08:51;;;;;;;3.35;2.38;;;;;;;;;;5080688;28;20497;-87
2023/09/15 12:11:17;;;;;;;2.47;2.10;;;;;;;;;;5062349;28;20028;-87
2023/09/15 12:13:43;;;;;;;3.03;2.17;;;;;;;;;;5059875;28;20029;-88
2023/09/15 12:16:17;;;;;;;3.30;2.10;;;;;;;;;;5058976;28;20020;-88
2023/09/15 12:18:53;;;;;;;3.00;2.25;;;;;;;;;;5077102;28;20043;-89
2023/09/15 12:21:26;;;;;;;3.03;2.17;;;;;;;;;;5076143;28;20102;-88
2023/09/15 12:23:56;;;;;;;3.08;2.60;;;;;;;;;;5058619;28;20549;-88
2023/09/15 12:26:26;;;;;;;3.47;2.33;;;;;;;;;;5066084;28;20031;-88
2023/09/15 12:28:54;;;;;;;2.38;1.92;;;;;;;;;;5058165;28;20012;-89
2023/09/15 12:31:23;;;;;;;3.10;2.10;;;;;;;;;;5091126;28;20024;-89
2023/09/15 12:33:55;;;;;;;2.95;2.10;;;;;;;;;;5066679;28;20024;-88
2023/09/15 12:36:21;;;;;;;2.97;2.30;;;;;;;;;;5050063;28;20047;-88
2023/09/15 12:38:47;;;;;;;3.28;2.30;;;;;;;;;;5072488;28;20052;-89
2023/09/15 12:41:14;;;;;;;3.92;2.00;;;;;;;;;;5026671;28;20349;-89
2023/09/15 12:43:40;;;;;;;3.10;2.13;;;;;;;;;;5056727;28;20059;-89
2023/09/15 12:46:05;;;;;;;2.72;2.05;;;;;;;;;;5074881;28;20028;-88
2023/09/15 12:48:31;;;;;;;2.53;2.20;;;;;;;;;;5065879;28;20024;-89
2023/09/15 12:50:56;;;;;;;2.70;1.98;;;;;;;;;;5072681;28;20021;-88
2023/09/15 12:53:22;;;;;;;3.35;1.75;;;;;;;;;;5074880;28;20115;-88
2023/09/15 12:55:47;;;;;;;1.92;1.83;;;;;;;;;;5071206;28;20025;-90
2023/09/15 12:58:13;;;;;;;3.70;1.98;;;;;;;;;;5053328;28;20025;-88
2023/09/15 13:00:41;;;;;;;2.35;1.95;;;;;;;;;;5072895;28;20024;-89
2023/09/15 13:03:07;;;;;;;1.92;1.65;;;;;;;;;;5063378;28;20025;-89
2023/09/15 13:05:32;;;;;;;2.33;1.95;;;;;;;;;;5067755;28;20028;-89
2023/09/15 13:07:58;;;;;;;2.13;1.80;;;;;;;;;;5067030;28;20028;-88
2023/09/15 13:10:23;;;;;;;2.13;1.80;;;;;;;;;;5054041;28;20027;-89
2023/09/15 13:12:51;;;;;;;2.90;1.83;;;;;;;;;;5028780;28;20036;-89
2023/09/15 13:15:21;;;;;;;2.10;1.65;;;;;;;;;;5050500;28;20039;-89
2023/09/15 13:17:49;;;;;;;2.00;1.77;;;;;;;;;;5064458;28;20035;-88
2023/09/15 13:20:14;;;;;;;2.22;2.03;;;;;;;;;;5072684;28;20556;-89
2023/09/15 13:22:39;;;;;;;1.88;1.73;;;;;;;;;;5054904;28;20111;-89
2023/09/15 13:25:06;;;;;;;2.10;1.63;;;;;;;;;;5042558;28;20415;-88
2023/09/15 13:27:33;;;;;;;2.13;1.92;;;;;;;;;;5053218;28;20078;-89
2023/09/15 13:29:59;;;;;;;2.05;1.63;;;;;;;;;;5070287;28;20040;-88
2023/09/15 13:32:25;;;;;;;1.70;1.60;;;;;;;;;;5059436;28;20107;-89
2023/09/15 13:34:54;;;;;;;3.10;1.70;;;;;;;;;;5062515;28;20112;-89
2023/09/15 13:37:21;;;;;;;7.60;1.60;;;;;;;;;;5047011;28;20025;-88
2023/09/15 13:39:49;;;;;;;2.17;1.80;;;;;;;;;;5051534;28;20036;-89
2023/09/15 13:42:29;;;;;;;2.17;1.88;;;;;;;;;;5055369;28;20491;-89
2023/09/15 13:45:02;;;;;;;1.80;1.70;;;;;;;;;;5079993;28;20036;-88
2023/09/15 13:47:32;;;;;;;1.90;1.75;;;;;;;;;;5062735;28;20024;-88
2023/09/15 13:49:59;;;;;;;1.92;1.70;;;;;;;;;;5060991;28;20029;-88
2023/09/15 13:52:25;;;;;;;2.58;1.98;;;;;;;;;;5063080;28;20027;-88
2023/09/15 13:54:52;;;;;;;2.47;1.80;;;;;;;;;;5057861;28;20024;-88
2023/09/15 13:57:18;;;;;;;1.58;1.48;;;;;;;;;;5079158;28;20059;-89
2023/09/15 13:59:43;;;;;;;1.67;1.50;;;;;;;;;;5060406;28;20033;-88
2023/09/15 14:02:08;;;;;;;1.48;1.38;;;;;;;;;;5027810;28;20013;-89
2023/09/15 14:04:34;;;;;;;3.72;2.00;;;;;;;;;;5052021;28;20016;-89
2023/09/15 14:07:04;;;;;;;2.80;2.03;;;;;;;;;;5072256;28;20028;-90
2023/09/15 14:09:30;;;;;;;2.60;2.00;;;;;;;;;;5071210;28;20115;-87
2023/09/15 14:11:56;;;;;;;3.10;1.88;;;;;;;;;;5053895;28;20075;-89
2023/09/15 14:14:21;;;;;;;5.38;2.22;;;;;;;;;;5078323;28;20028;-89
2023/09/15 14:16:46;;;;;;;2.20;1.70;;;;;;;;;;5069687;28;20146;-89
2023/09/15 14:19:12;;;;;;;2.33;1.98;;;;;;;;;;5061506;28;20483;-89
2023/09/15 14:21:38;;;;;;;3.65;2.10;;;;;;;;;;5072356;28;20067;-89
2023/09/15 14:24:03;;;;;;;2.75;2.10;;;;;;;;;;5060030;28;20051;-90
2023/09/15 14:26:29;;;;;;;2.47;2.03;;;;;;;;;;5056021;28;20087;-88
2023/09/15 14:28:57;;;;;;;2.60;2.00;;;;;;;;;;5076532;28;20013;-88
2023/09/15 14:31:25;;;;;;;3.60;2.50;;;;;;;;;;5058683;28;20025;-89
2023/09/15 14:33:58;;;;;;;5.35;2.28;;;;;;;;;;5060686;28;20158;-88
2023/09/15 14:36:23;;;;;;;4.05;2.60;;;;;;;;;;5082705;28;20115;-88
2023/09/15 14:38:48;;;;;;;4.00;2.50;;;;;;;;;;5079730;28;20054;-93
2023/09/15 14:41:14;;;;;;;2.58;2.38;;;;;;;;;;5065168;28;20462;-91
2023/09/15 14:43:42;;;;;;;2.45;1.92;;;;;;;;;;5046180;28;20097;-93